createdAt,value
2022-10-07T00:03:13.126Z,102592.59
2022-10-07T00:08:38.322Z,102573.38
2022-10-07T00:14:03.214Z,102582.97
2022-10-07T00:19:26.253Z,102554.22
2022-10-07T00:24:50.734Z,102576.88
2022-10-07T00:30:14.564Z,102575.13
2022-10-07T00:35:38.856Z,102569.91
2022-10-07T00:41:03.544Z,102568.16
2022-10-07T00:46:32.477Z,102569.03
2022-10-07T00:51:55.694Z,102555.06
2022-10-07T00:57:20.284Z,102552.47
2022-10-07T01:02:43.541Z,102548.97
2022-10-07T01:08:06.935Z,102539.38
2022-10-07T01:13:34.492Z,102528.06
2022-10-07T01:19:05.741Z,102527.19
2022-10-07T01:24:37.729Z,102528.00
2022-10-07T01:30:05.105Z,102511.47
2022-10-07T01:35:32.759Z,102507.94
2022-10-07T01:40:58.363Z,102498.38
2022-10-07T01:46:24.929Z,102487.03
2022-10-07T01:51:59.031Z,102462.63
2022-10-07T01:57:29.538Z,102458.25
2022-10-07T02:03:13.205Z,102449.53
2022-10-07T02:08:40.281Z,102438.16
2022-10-07T02:14:10.214Z,102430.31
2022-10-07T02:19:37.302Z,102401.53
2022-10-07T02:25:00.599Z,102405.03
2022-10-07T02:30:26.185Z,102402.44
2022-10-07T02:35:52.575Z,102393.72
2022-10-07T02:41:31.497Z,102405.94
2022-10-07T02:47:05.413Z,102393.72
2022-10-07T02:52:31.390Z,102390.22
2022-10-07T02:57:59.425Z,102367.59
2022-10-07T03:03:23.152Z,102380.63
2022-10-07T03:08:55.018Z,102368.44
2022-10-07T03:14:19.579Z,102369.25
2022-10-07T03:19:42.853Z,102357.94
2022-10-07T03:25:09.020Z,102352.72
2022-10-07T03:30:32.568Z,102355.34
2022-10-07T03:35:55.852Z,102344.88
2022-10-07T03:41:20.735Z,102338.75
2022-10-07T03:46:50.191Z,102331.81
2022-10-07T03:52:14.691Z,102323.94
2022-10-07T03:57:56.888Z,102330.91
2022-10-07T04:03:22.915Z,102337.91
2022-10-07T04:08:46.154Z,102324.81
2022-10-07T04:14:11.044Z,102320.50
2022-10-07T04:19:35.878Z,102310.00
2022-10-07T04:25:17.166Z,102305.59
2022-10-07T04:30:43.717Z,102310.84
2022-10-07T04:36:09.886Z,102303.88
2022-10-07T04:41:47.502Z,102307.34
2022-10-07T04:47:17.472Z,102294.31
2022-10-07T04:52:40.848Z,102270.84
2022-10-07T04:58:04.321Z,102283.91
2022-10-07T05:03:30.165Z,102275.25
2022-10-07T05:08:54.306Z,102263.94
2022-10-07T05:14:21.252Z,102262.19
2022-10-07T05:19:46.709Z,102273.44
2022-10-07T05:25:10.402Z,102269.16
2022-10-07T05:30:33.641Z,102268.28
2022-10-07T05:35:58.696Z,102260.44
2022-10-07T05:41:22.472Z,102259.56
2022-10-07T05:46:45.798Z,102249.97
2022-10-07T05:52:11.791Z,102250.78
2022-10-07T05:57:36.889Z,102239.44
2022-10-07T06:03:02.634Z,102235.09
2022-10-07T06:08:27.924Z,102242.06
2022-10-07T06:13:55.047Z,102247.28
2022-10-07T06:19:22.723Z,102241.22
2022-10-07T06:24:52.046Z,102249.88
2022-10-07T06:30:16.761Z,102248.13
2022-10-07T06:35:40.203Z,102243.75
2022-10-07T06:41:07.095Z,102238.44
2022-10-07T06:46:31.776Z,102241.09
2022-10-07T06:51:55.069Z,102242.72
2022-10-07T06:57:44.828Z,102239.28
2022-10-07T07:03:04.650Z,102244.47
2022-10-07T07:08:30.918Z,102243.47
2022-10-07T07:13:57.337Z,102244.19
2022-10-07T07:19:21.432Z,102234.53
2022-10-07T07:24:45.041Z,102231.19
2022-10-07T07:30:11.016Z,102245.94
2022-10-07T07:35:39.948Z,102233.53
2022-10-07T07:41:05.893Z,102219.28
2022-10-07T07:46:34.830Z,102221.63
2022-10-07T07:51:58.595Z,102211.19
2022-10-07T07:57:27.724Z,102211.22
2022-10-07T08:02:53.909Z,102212.94
2022-10-07T08:08:17.540Z,102198.00
2022-10-07T08:13:41.831Z,102216.44
2022-10-07T08:19:10.034Z,102211.88
2022-10-07T08:24:33.250Z,102210.09
2022-10-07T08:29:56.505Z,102202.78
2022-10-07T08:35:21.675Z,102207.69
2022-10-07T08:40:49.615Z,102198.84
2022-10-07T08:46:15.711Z,102182.16
2022-10-07T08:51:44.779Z,102178.50
2022-10-07T08:57:16.565Z,102178.22
2022-10-07T09:02:44.890Z,102172.59
2022-10-07T09:08:14.755Z,102159.53
2022-10-07T09:13:40.409Z,102161.88
2022-10-07T09:19:13.468Z,102159.53
2022-10-07T09:24:38.125Z,102145.59
2022-10-07T09:30:01.548Z,102136.50
2022-10-07T09:35:26.653Z,102142.28
2022-10-07T09:41:16.824Z,102123.47
2022-10-07T09:46:46.837Z,102127.50
2022-10-07T09:52:18.303Z,102124.41
2022-10-07T09:57:45.968Z,102121.41
2022-10-07T10:03:09.492Z,102132.41
2022-10-07T10:08:35.015Z,102109.41
2022-10-07T10:13:59.577Z,102118.22
2022-10-07T10:19:25.137Z,102120.47
2022-10-07T10:25:05.753Z,102105.47
2022-10-07T10:30:30.856Z,102105.00
2022-10-07T10:35:59.030Z,102096.56
2022-10-07T10:41:31.356Z,102094.22
2022-10-07T10:47:02.111Z,102085.28
2022-10-07T10:52:35.365Z,102062.66
2022-10-07T10:58:05.728Z,102060.63
2022-10-07T11:03:47.138Z,102013.97
2022-10-07T11:09:16.548Z,102047.72
2022-10-07T11:14:45.227Z,102035.53
2022-10-07T11:20:17.707Z,102023.50
2022-10-07T11:25:44.530Z,102020.44
2022-10-07T11:31:12.302Z,102009.53
2022-10-07T11:36:45.591Z,102007.03
2022-10-07T11:42:14.639Z,101996.28
2022-10-07T11:47:40.680Z,101988.56
2022-10-07T11:53:08.029Z,101973.69
2022-10-07T11:58:32.925Z,101966.50
2022-10-07T12:04:16.958Z,101956.22
2022-10-07T12:10:21.945Z,101915.97
2022-10-07T12:15:45.993Z,101933.25
2022-10-07T12:21:12.375Z,101922.94
2022-10-07T12:26:48.241Z,101919.81
2022-10-07T12:32:42.734Z,101910.50
2022-10-07T12:38:14.267Z,101903.09
2022-10-07T12:43:49.771Z,101890.59
2022-10-07T12:49:24.520Z,101883.84
2022-10-07T12:54:51.503Z,101874.44
2022-10-07T13:00:17.540Z,101865.50
2022-10-07T13:06:18.728Z,101866.75
2022-10-07T13:11:59.840Z,101851.00
2022-10-07T13:17:36.257Z,101857.13
2022-10-07T13:23:05.845Z,101855.63
2022-10-07T13:28:37.158Z,101845.50
2022-10-07T13:34:02.332Z,101845.31
2022-10-07T13:39:26.054Z,101845.84
2022-10-07T13:44:49.150Z,101835.09
2022-10-07T13:50:18.612Z,101839.19
2022-10-07T13:55:41.704Z,101820.81
2022-10-07T14:01:09.815Z,101825.84
2022-10-07T14:06:46.177Z,101813.06
2022-10-07T14:12:12.232Z,101812.81
2022-10-07T14:17:41.939Z,101805.59
2022-10-07T14:23:08.794Z,101785.63
2022-10-07T14:28:35.712Z,101786.56
2022-10-07T14:34:19.191Z,101781.13
2022-10-07T14:39:47.682Z,101764.06
2022-10-07T14:45:16.062Z,101768.38
2022-10-07T14:50:39.249Z,101772.13
2022-10-07T14:56:03.716Z,101765.94
2022-10-07T15:01:29.674Z,101757.81
2022-10-07T15:06:55.841Z,101750.81
2022-10-07T15:12:20.278Z,101749.25
2022-10-07T15:17:44.428Z,101736.75
2022-10-07T15:23:07.904Z,101738.94
2022-10-07T15:28:33.138Z,101724.66
2022-10-07T15:33:57.878Z,101699.16
2022-10-07T15:39:21.256Z,101694.00
2022-10-07T15:44:45.691Z,101681.44
2022-10-07T15:50:10.747Z,101683.34
2022-10-07T15:55:34.069Z,101684.94
2022-10-07T16:00:59.839Z,101692.28
2022-10-07T16:06:24.583Z,101686.72
2022-10-07T16:11:47.819Z,101675.41
2022-10-07T16:17:13.068Z,101679.06
2022-10-07T16:22:36.191Z,101680.97
2022-10-07T16:28:17.120Z,101668.09
2022-10-07T16:33:41.921Z,101672.34
2022-10-07T16:39:08.654Z,101643.72
2022-10-07T16:44:31.761Z,101665.59
2022-10-07T16:49:56.141Z,101659.78
2022-10-07T16:55:19.152Z,101649.59
2022-10-07T17:00:42.278Z,101645.59
2022-10-07T17:06:07.753Z,101657.16
2022-10-07T17:11:31.762Z,101665.13
2022-10-07T17:16:57.618Z,101647.88
2022-10-07T17:22:22.055Z,101642.59
2022-10-07T17:27:45.334Z,101632.81
2022-10-07T17:33:08.923Z,101637.22
2022-10-07T17:38:34.119Z,101632.06
2022-10-07T17:43:59.265Z,101636.59
2022-10-07T17:49:22.387Z,101631.09
2022-10-07T17:54:47.393Z,101625.94
2022-10-07T18:00:11.176Z,101639.09
2022-10-07T18:05:36.932Z,101633.38
2022-10-07T18:11:02.828Z,101621.22
2022-10-07T18:16:25.946Z,101618.00
2022-10-07T18:21:49.099Z,101610.59
2022-10-07T18:27:14.001Z,101602.47
2022-10-07T18:32:37.041Z,101603.78
2022-10-07T18:38:00.100Z,101596.28
2022-10-07T18:43:24.630Z,101609.47
2022-10-07T18:48:48.718Z,101601.75
2022-10-07T18:54:11.881Z,101605.38
2022-10-07T18:59:36.439Z,101602.50
2022-10-07T19:04:59.457Z,101598.44
2022-10-07T19:10:22.734Z,101595.84
2022-10-07T19:15:47.142Z,101595.63
2022-10-07T19:21:10.396Z,101589.34
2022-10-07T19:26:35.347Z,101587.22
2022-10-07T19:32:05.667Z,101573.59
2022-10-07T19:37:31.069Z,101570.84
2022-10-07T19:42:54.123Z,101573.78
2022-10-07T19:48:18.512Z,101564.19
2022-10-07T19:53:46.870Z,101556.66
2022-10-07T19:59:12.085Z,101568.09
2022-10-07T20:04:36.483Z,101561.03
2022-10-07T20:09:59.583Z,101555.63
2022-10-07T20:15:23.215Z,101546.53
2022-10-07T20:20:47.628Z,101533.09
2022-10-07T20:26:12.267Z,101544.56
2022-10-07T20:31:36.916Z,101533.97
2022-10-07T20:37:03.400Z,101545.63
2022-10-07T20:42:28.747Z,101543.81
2022-10-07T20:47:55.153Z,101535.88
2022-10-07T20:53:19.648Z,101525.31
2022-10-07T20:58:43.304Z,101535.78
2022-10-07T21:04:06.575Z,101521.94
2022-10-07T21:09:36.468Z,101518.19
2022-10-07T21:15:01.105Z,101507.94
2022-10-07T21:20:24.147Z,101497.81
2022-10-07T21:25:48.751Z,101490.78
2022-10-07T21:31:17.174Z,101471.72
2022-10-07T21:36:42.743Z,101461.06
2022-10-07T21:42:07.583Z,101465.50
2022-10-07T21:47:30.651Z,101470.78
2022-10-07T21:52:53.897Z,101463.19
2022-10-07T21:58:19.915Z,101468.19
2022-10-07T22:03:43.117Z,101473.88
2022-10-07T22:09:06.287Z,101471.69
2022-10-07T22:14:30.733Z,101485.44
2022-10-07T22:19:53.785Z,101486.06
2022-10-07T22:25:17.013Z,101519.25
2022-10-07T22:30:42.133Z,101525.94
2022-10-07T22:36:06.049Z,101528.00
2022-10-07T22:41:29.379Z,101523.53
2022-10-07T22:46:53.761Z,101535.00
2022-10-07T22:52:16.840Z,101535.81
2022-10-07T22:57:40.031Z,101530.13
2022-10-07T23:03:05.399Z,101535.53
2022-10-07T23:08:28.672Z,101530.53
2022-10-07T23:13:52.089Z,101521.97
2022-10-07T23:19:16.583Z,101510.13
2022-10-07T23:24:39.731Z,101514.47
2022-10-07T23:30:06.757Z,101516.78
2022-10-07T23:35:32.126Z,101509.31
2022-10-07T23:40:55.291Z,101495.31
2022-10-07T23:46:19.633Z,101496.97
2022-10-07T23:51:44.169Z,101495.59
2022-10-07T23:57:07.193Z,101503.56
